Time;durP1;ratioP1;P1;durP2;ratioP2;P2;SDS_P1;SDS_P2;PMS_P1;PMS_P2;Temp;Humidity;BMP_temperature;BMP_pressure;BME280_temperature;BME280_humidity;BME280_pressure;Samples;Min_cycle;Max_cycle;Signal;HPM_P1;HPM_P2
2023/01/03 00:01:48;;;;;;;15.07;5.93;;;;;;;-148.88;100.00;77219.66;5014354;28;20022;-87
2023/01/03 00:04:14;;;;;;;15.52;7.00;;;;;;;-148.88;100.00;77223.72;5014301;28;20057;-87
2023/01/03 00:06:43;;;;;;;12.25;6.20;;;;;;;-148.88;100.00;77248.09;5014265;28;20443;-87
2023/01/03 00:09:10;;;;;;;13.15;5.93;;;;;;;-148.88;100.00;77239.97;5014378;28;20026;-88
2023/01/03 00:14:25;;;;;;;16.67;6.95;;;;;;;-148.88;100.00;77270.44;5014495;28;20045;-88
2023/01/03 00:16:56;;;;;;;12.60;6.32;;;;;;;-148.88;100.00;77254.19;5014757;28;20470;-89
2023/01/03 00:19:23;;;;;;;15.48;6.45;;;;;;;-148.88;100.00;77246.06;5014173;28;20044;-88
2023/01/03 00:21:48;;;;;;;14.68;7.07;;;;;;;-148.88;100.00;77258.25;5013951;28;20021;-87
2023/01/03 00:24:14;;;;;;;17.77;7.78;;;;;;;-148.88;100.00;77252.16;5013887;28;20037;-88
2023/01/03 00:26:40;;;;;;;15.23;7.00;;;;;;;-148.88;100.00;77237.94;5014675;28;20452;-87
2023/01/03 00:29:06;;;;;;;14.40;6.70;;;;;;;-148.88;100.00;77254.19;5013767;28;20045;-88
2023/01/03 00:31:32;;;;;;;15.52;6.75;;;;;;;-148.88;100.00;77264.34;5014071;28;20026;-88
2023/01/03 00:33:57;;;;;;;14.73;6.53;;;;;;;-148.88;100.00;77270.44;5013635;28;20028;-87
2023/01/03 00:36:22;;;;;;;20.52;7.40;;;;;;;-148.88;100.00;77276.53;5013689;28;20022;-87
2023/01/03 00:38:48;;;;;;;15.25;6.80;;;;;;;-148.88;100.00;77280.59;5013729;28;20022;-88
2023/01/03 00:41:15;;;;;;;14.85;6.47;;;;;;;-148.88;100.00;77276.53;4996045;28;20022;-88
2023/01/03 00:43:44;;;;;;;15.32;7.25;;;;;;;-148.88;100.00;77298.91;5013537;28;20088;-87
2023/01/03 00:46:11;;;;;;;14.50;6.55;;;;;;;-148.88;100.00;77288.72;5013572;28;20435;-87
2023/01/03 00:48:37;;;;;;;16.27;7.57;;;;;;;-148.88;100.00;77294.84;5013656;28;20540;-88
2023/01/03 00:51:08;;;;;;;14.73;6.88;;;;;;;-148.88;100.00;77305.00;5013835;28;20022;-88
2023/01/03 00:53:35;;;;;;;18.17;7.45;;;;;;;-148.88;100.00;77305.00;5013446;28;20457;-87
2023/01/03 00:56:08;;;;;;;16.33;7.90;;;;;;;-148.88;100.00;77309.06;5013453;28;20026;-88
2023/01/03 00:58:40;;;;;;;12.18;6.30;;;;;;;-148.88;100.00;77323.28;5013647;28;20058;-87
2023/01/03 01:01:30;;;;;;;14.25;7.18;;;;;;;-148.88;100.00;77329.38;5013457;28;20033;-87
2023/01/03 01:03:58;;;;;;;16.52;7.07;;;;;;;-148.88;100.00;77329.38;5013643;28;20402;-87
2023/01/03 01:06:27;;;;;;;15.35;6.57;;;;;;;-148.88;100.00;77339.53;5014834;28;20030;-87
2023/01/03 01:08:55;;;;;;;14.90;7.18;;;;;;;-148.88;100.00;77345.63;5013374;28;20022;-87
2023/01/03 01:11:21;;;;;;;18.00;7.15;;;;;;;-148.88;100.00;77361.88;5013441;28;20398;-87
2023/01/03 01:13:48;;;;;;;16.02;7.72;;;;;;;-148.88;100.00;77363.91;5013395;28;20034;-87
2023/01/03 01:16:16;;;;;;;14.68;6.65;;;;;;;-148.88;100.00;77361.88;5013604;28;20037;-87
2023/01/03 01:18:44;;;;;;;16.98;8.00;;;;;;;-148.88;100.00;77372.03;5013435;28;20050;-87
2023/01/03 01:21:13;;;;;;;20.63;7.30;;;;;;;-148.88;100.00;77374.09;5013257;28;20057;-87
2023/01/03 01:23:40;;;;;;;13.93;6.25;;;;;;;-148.88;100.00;77382.22;5013115;28;20028;-88
2023/01/03 01:26:07;;;;;;;16.27;7.28;;;;;;;-148.88;100.00;77394.41;5013092;28;20022;-86
2023/01/03 01:28:33;;;;;;;15.68;6.78;;;;;;;-148.88;100.00;77394.41;5013859;28;20036;-87
2023/01/03 01:31:01;;;;;;;15.43;6.72;;;;;;;-148.88;100.00;77414.72;5013418;28;20028;-87
2023/01/03 01:33:27;;;;;;;15.23;6.63;;;;;;;-148.88;100.00;77410.66;5012981;28;20025;-87
2023/01/03 01:35:52;;;;;;;19.33;6.95;;;;;;;-148.88;100.00;77418.78;5013156;28;20100;-87
2023/01/03 01:38:18;;;;;;;15.95;7.47;;;;;;;-148.88;100.00;77437.06;5013255;28;20386;-87
2023/01/03 01:40:43;;;;;;;17.65;7.30;;;;;;;-148.88;100.00;77439.09;5012955;28;20558;-87
2023/01/03 01:46:28;;;;;;;14.23;7.20;;;;;;;-148.88;100.00;77447.22;5013522;28;20393;-86
2023/01/03 01:48:57;;;;;;;19.35;7.43;;;;;;;-148.88;100.00;77455.38;5013379;28;20049;-87
2023/01/03 01:51:24;;;;;;;19.20;7.30;;;;;;;-148.88;100.00;77441.13;5013249;28;20053;-86
2023/01/03 01:53:52;;;;;;;15.00;6.93;;;;;;;-148.88;100.00;77439.09;5013073;28;20133;-87
2023/01/03 01:56:22;;;;;;;20.13;7.88;;;;;;;-148.88;100.00;77443.16;5013310;28;20509;-86
2023/01/03 01:58:50;;;;;;;16.60;7.70;;;;;;;-148.88;100.00;77428.94;5012986;28;20026;-86
2023/01/03 02:01:17;;;;;;;19.98;7.82;;;;;;;-148.88;100.00;77430.97;5012933;28;20030;-87
2023/01/03 02:03:46;;;;;;;22.00;8.25;;;;;;;-148.88;100.00;77428.94;5013090;28;20092;-87
2023/01/03 02:06:15;;;;;;;20.55;9.10;;;;;;;-148.88;100.00;77418.78;5013263;28;20080;-86
2023/01/03 02:08:41;;;;;;;22.70;9.15;;;;;;;-148.88;100.00;77406.59;5013134;28;20022;-86
2023/01/03 02:11:28;;;;;;;21.50;9.68;;;;;;;-148.88;100.00;77384.25;4998411;28;20036;-85
2023/01/03 02:14:37;;;;;;;23.98;9.48;;;;;;;-148.88;100.00;77394.41;5016577;28;20117;-85
2023/01/03 02:17:28;;;;;;;25.30;10.02;;;;;;;-148.88;100.00;77380.19;5016887;28;20034;-86
2023/01/03 02:20:19;;;;;;;23.08;10.23;;;;;;;-148.88;100.00;77370.00;5017630;28;20128;-86
2023/01/03 02:23:03;;;;;;;25.58;10.75;;;;;;;-148.88;100.00;77382.22;5017069;28;20042;-85
2023/01/03 02:25:46;;;;;;;21.90;8.90;;;;;;;-148.88;100.00;77384.25;5016335;28;20036;-86
2023/01/03 02:28:29;;;;;;;24.75;10.40;;;;;;;-148.88;100.00;77384.25;5016900;28;20030;-86
2023/01/03 02:31:23;;;;;;;23.48;9.90;;;;;;;-148.88;100.00;77380.19;5017054;28;20018;-85
2023/01/03 02:34:16;;;;;;;27.20;11.32;;;;;;;-148.88;100.00;77382.22;4998734;28;20433;-86
2023/01/03 02:36:52;;;;;;;22.92;10.57;;;;;;;-148.88;100.00;77382.22;5016655;28;20029;-86
2023/01/03 02:39:36;;;;;;;29.15;11.45;;;;;;;-148.88;100.00;77378.16;5016205;28;20409;-86
2023/01/03 02:45:11;;;;;;;26.77;11.90;;;;;;;-148.88;100.00;77376.13;5016075;28;20594;-86
2023/01/03 02:47:53;;;;;;;30.58;12.95;;;;;;;-148.88;100.00;77374.09;5015988;28;20509;-86
2023/01/03 02:50:23;;;;;;;32.92;12.93;;;;;;;-148.88;100.00;77378.16;5016475;28;20034;-86
2023/01/03 02:52:53;;;;;;;33.60;14.63;;;;;;;-148.88;100.00;77363.91;5015648;28;20061;-87
2023/01/03 02:55:23;;;;;;;33.40;15.35;;;;;;;-148.88;100.00;77363.91;5015892;28;20030;-87
2023/01/03 02:58:00;;;;;;;35.90;15.23;;;;;;;-148.88;100.00;77370.00;4997986;28;20022;-87
2023/01/03 03:00:28;;;;;;;34.03;15.75;;;;;;;-148.88;100.00;77374.09;4998020;28;20081;-87
2023/01/03 03:02:59;;;;;;;38.08;15.27;;;;;;;-148.88;100.00;77374.09;5015778;28;20017;-87
2023/01/03 03:05:30;;;;;;;33.92;15.38;;;;;;;-148.88;100.00;77370.00;5015453;28;20103;-86
2023/01/03 03:07:55;;;;;;;33.70;14.95;;;;;;;-148.88;100.00;77374.09;5015496;28;20109;-87
2023/01/03 03:16:53;;;;;;;32.25;14.52;;;;;;;-148.88;100.00;77378.16;4996520;28;20098;-86
2023/01/03 03:24:50;;;;;;;29.13;13.35;;;;;;;-148.88;100.00;77376.13;5039982;22;20103;-75
2023/01/03 03:30:09;;;;;;;33.05;14.18;;;;;;;-148.88;100.00;77382.22;5035176;28;20079;-77
2023/01/03 03:32:37;;;;;;;30.05;13.43;;;;;;;-148.88;100.00;77382.22;5034697;28;20022;-77
2023/01/03 03:35:06;;;;;;;31.58;12.93;;;;;;;-148.88;100.00;77378.16;5016871;28;20033;-76
2023/01/03 03:37:36;;;;;;;29.13;12.68;;;;;;;-148.88;100.00;77390.34;5017531;28;20064;-77
2023/01/03 03:45:48;;;;;;;28.48;11.35;;;;;;;-148.88;100.00;77380.19;5034649;28;20028;-76
2023/01/03 03:48:24;;;;;;;28.80;12.30;;;;;;;-148.88;100.00;77384.25;5016747;28;20029;-77
2023/01/03 03:51:16;;;;;;;28.95;13.02;;;;;;;-148.88;100.00;77378.16;5034506;28;20071;-76
2023/01/03 03:53:44;;;;;;;34.83;12.30;;;;;;;-148.88;100.00;77382.22;5034366;28;20148;-76
2023/01/03 03:56:16;;;;;;;33.03;12.90;;;;;;;-148.88;100.00;77388.31;5034321;28;20036;-76
2023/01/03 03:58:44;;;;;;;32.67;13.02;;;;;;;-148.88;100.00;77382.22;5034663;28;20028;-76
2023/01/03 04:01:15;;;;;;;33.90;13.73;;;;;;;-148.88;100.00;77388.31;5034255;28;20025;-77
2023/01/03 04:03:42;;;;;;;29.48;12.05;;;;;;;-148.88;100.00;77392.38;5016429;28;20033;-76
2023/01/03 04:06:36;;;;;;;31.30;13.65;;;;;;;-148.88;100.00;77386.28;5034382;28;20115;-76
2023/01/03 04:09:01;;;;;;;30.70;13.55;;;;;;;-148.88;100.00;77386.28;5031945;28;20044;-76
2023/01/03 04:11:27;;;;;;;29.98;13.52;;;;;;;-148.88;100.00;77386.28;5016312;28;20034;-76
2023/01/03 04:13:52;;;;;;;28.33;12.52;;;;;;;-148.88;100.00;77386.28;5033870;28;20376;-76
2023/01/03 04:16:17;;;;;;;32.55;13.20;;;;;;;-148.88;100.00;77400.50;5034245;28;20183;-77
2023/01/03 04:18:43;;;;;;;31.92;12.43;;;;;;;-148.88;100.00;77394.41;5016167;28;20029;-76
2023/01/03 04:21:09;;;;;;;30.70;12.95;;;;;;;-148.88;100.00;77406.59;5034179;28;20481;-77
2023/01/03 04:23:34;;;;;;;34.60;12.95;;;;;;;-148.88;100.00;77414.72;5033574;28;20041;-77
2023/01/03 04:25:59;;;;;;;32.05;12.77;;;;;;;-148.88;100.00;77414.72;5016354;28;20018;-76
2023/01/03 04:28:24;;;;;;;29.33;12.25;;;;;;;-148.88;100.00;77388.31;5034013;28;20357;-76
2023/01/03 04:30:50;;;;;;;27.23;12.80;;;;;;;-148.88;100.00;77406.59;5033710;28;20049;-76
2023/01/03 04:33:15;;;;;;;31.45;11.20;;;;;;;-148.88;100.00;77388.31;5033228;28;20026;-76
2023/01/03 04:35:41;;;;;;;26.10;11.05;;;;;;;-148.88;100.00;77376.13;5015898;28;20083;-76
2023/01/03 04:38:06;;;;;;;24.20;11.07;;;;;;;-148.88;100.00;77404.56;5033596;28;20030;-76
2023/01/03 04:40:35;;;;;;;26.10;10.90;;;;;;;-148.88;100.00;77406.59;5033515;28;20040;-76
2023/01/03 04:45:46;;;;;;;;;;;;;;;-148.88;100.00;77418.78;5034188;28;20147;-77
2023/01/03 04:48:11;;;;;;;23.58;9.93;;;;;;;-148.88;100.00;77418.78;5033386;28;19913;-76
2023/01/03 04:50:37;;;;;;;28.45;11.77;;;;;;;-148.88;100.00;77418.78;5033377;28;20036;-77
2023/01/03 04:53:02;;;;;;;24.70;11.85;;;;;;;-148.88;100.00;77422.84;5033204;28;20096;-76
2023/01/03 04:55:27;;;;;;;26.17;12.35;;;;;;;-148.88;100.00;77422.84;5033318;28;20033;-76
2023/01/03 04:57:52;;;;;;;28.58;12.23;;;;;;;-148.88;100.00;77430.97;5033320;28;20025;-77
2023/01/03 05:00:18;;;;;;;28.75;11.27;;;;;;;-148.88;100.00;77435.03;5015802;28;20337;-76
2023/01/03 05:02:43;;;;;;;28.58;12.32;;;;;;;-148.88;100.00;77420.81;5033187;28;20491;-77
2023/01/03 05:05:09;;;;;;;26.83;12.00;;;;;;;-148.88;100.00;77435.03;5033193;28;20388;-76
2023/01/03 05:07:34;;;;;;;27.58;13.05;;;;;;;-148.88;100.00;77435.03;5033198;28;20112;-77
2023/01/03 05:10:00;;;;;;;29.10;13.60;;;;;;;-148.88;100.00;77441.13;5033274;28;20025;-76
2023/01/03 05:12:25;;;;;;;32.22;13.00;;;;;;;-148.88;100.00;77426.91;5033401;28;20041;-76
2023/01/03 05:14:50;;;;;;;25.27;11.95;;;;;;;-148.88;100.00;77439.09;5032996;28;20506;-76
2023/01/03 05:17:19;;;;;;;33.65;13.45;;;;;;;-148.88;100.00;77426.91;5033059;28;20083;-76
2023/01/03 05:27:59;;;;;;;34.17;13.77;;;;;;;-148.88;100.00;77445.19;5033310;28;20360;-77
2023/01/03 05:30:25;;;;;;;30.55;13.48;;;;;;;-148.88;100.00;77451.28;5032906;28;20369;-76
2023/01/03 05:32:50;;;;;;;33.45;13.75;;;;;;;-148.88;100.00;77473.66;5033024;28;20434;-76
2023/01/03 05:35:16;;;;;;;28.30;11.73;;;;;;;-148.88;100.00;77475.69;5032700;28;20124;-76
2023/01/03 05:37:41;;;;;;;33.65;13.45;;;;;;;-148.88;100.00;77469.59;5015280;28;20064;-77
2023/01/03 05:40:07;;;;;;;30.02;13.65;;;;;;;-148.88;100.00;77481.78;5015239;28;20025;-76
2023/01/03 05:42:33;;;;;;;27.88;13.30;;;;;;;-148.88;100.00;77487.88;5015234;28;20542;-76
2023/01/03 05:44:58;;;;;;;30.98;13.30;;;;;;;-148.88;100.00;77491.94;5033836;28;20032;-77
2023/01/03 05:47:24;;;;;;;29.75;13.55;;;;;;;-148.88;100.00;77485.84;5036844;28;20055;-76
2023/01/03 05:49:49;;;;;;;31.05;13.75;;;;;;;-148.88;100.00;77487.88;5019209;28;20029;-77
2023/01/03 05:52:15;;;;;;;25.05;13.10;;;;;;;-148.88;100.00;77475.69;5036531;28;20395;-76
2023/01/03 05:54:40;;;;;;;31.02;13.10;;;;;;;-148.88;100.00;77491.94;5018803;28;20132;-76
2023/01/03 05:57:05;;;;;;;31.98;13.40;;;;;;;-148.88;100.00;77493.97;5019096;28;20029;-77
2023/01/03 05:59:31;;;;;;;31.58;12.68;;;;;;;-148.88;100.00;77487.88;5036539;28;20032;-76
2023/01/03 06:01:56;;;;;;;27.67;12.90;;;;;;;-148.88;100.00;77498.03;5036798;28;20027;-76
2023/01/03 06:04:21;;;;;;;29.38;12.90;;;;;;;-148.88;100.00;77510.22;5036393;28;20030;-76
2023/01/03 06:06:47;;;;;;;30.27;12.02;;;;;;;-148.88;100.00;77520.38;5018492;28;20021;-77
2023/01/03 06:09:12;;;;;;;31.10;12.52;;;;;;;-148.88;100.00;77510.22;5036191;28;20025;-76
2023/01/03 06:11:39;;;;;;;32.38;14.07;;;;;;;-148.88;100.00;77532.59;5018474;28;20100;-77
2023/01/03 06:14:05;;;;;;;27.85;11.98;;;;;;;-148.88;100.00;77528.50;5036191;28;20025;-76
2023/01/03 06:19:14;;;;;;;27.17;12.13;;;;;;;-148.88;100.00;77548.84;5036641;28;20107;-77
2023/01/03 06:21:40;;;;;;;28.02;12.38;;;;;;;-148.88;100.00;77544.78;5036060;28;20092;-77
2023/01/03 06:24:06;;;;;;;31.70;13.25;;;;;;;-148.88;100.00;77556.97;5018187;28;20472;-76
2023/01/03 06:26:31;;;;;;;28.10;12.70;;;;;;;-148.88;100.00;77544.78;5035992;28;20026;-75
2023/01/03 06:28:57;;;;;;;29.83;12.60;;;;;;;-148.88;100.00;77544.78;5035975;28;20503;-76
2023/01/03 06:31:23;;;;;;;28.05;12.38;;;;;;;-148.88;100.00;77559.00;5035929;28;20036;-76
2023/01/03 06:33:48;;;;;;;30.73;13.15;;;;;;;-148.88;100.00;77581.34;5018024;28;20030;-75
2023/01/03 06:36:17;;;;;;;27.38;12.95;;;;;;;-148.88;100.00;77587.44;5017996;28;20488;-76
2023/01/03 06:38:42;;;;;;;31.88;13.65;;;;;;;-148.88;100.00;77609.81;5018006;28;20538;-75
2023/01/03 06:41:08;;;;;;;30.13;13.90;;;;;;;-148.88;100.00;77622.00;5035730;28;20029;-75
2023/01/03 06:43:33;;;;;;;26.70;12.98;;;;;;;-148.88;100.00;77613.88;5017831;28;20021;-75
2023/01/03 06:54:24;;;;;;;29.70;11.55;;;;;;;-148.88;100.00;77646.38;5035578;28;20489;-77
2023/01/03 06:56:50;;;;;;;31.15;12.80;;;;;;;-148.88;100.00;77662.63;5017621;28;20030;-77
2023/01/03 06:59:17;;;;;;;29.92;13.40;;;;;;;-148.88;100.00;77654.50;5035679;28;20036;-77
2023/01/03 07:01:43;;;;;;;27.10;12.68;;;;;;;-148.88;100.00;77666.69;5017629;28;20022;-76
2023/01/03 07:04:09;;;;;;;30.30;12.68;;;;;;;-148.88;100.00;77678.91;5035356;28;20021;-76
2023/01/03 07:06:34;;;;;;;29.02;13.13;;;;;;;-148.88;100.00;77668.72;5035576;28;20044;-76
2023/01/03 07:08:59;;;;;;;28.02;12.60;;;;;;;-148.88;100.00;77689.06;5035310;28;20032;-76
2023/01/03 07:11:25;;;;;;;31.20;13.00;;;;;;;-148.88;100.00;77687.03;5035283;28;20096;-76
2023/01/03 07:13:57;;;;;;;32.65;13.43;;;;;;;-148.88;100.00;77670.75;5017315;28;20360;-76
2023/01/03 07:16:23;;;;;;;27.95;12.45;;;;;;;-148.88;100.00;77689.06;5017447;28;20587;-76
2023/01/03 07:18:49;;;;;;;37.95;13.63;;;;;;;-148.88;100.00;77697.19;5035129;28;20029;-76
2023/01/03 07:21:14;;;;;;;32.33;12.90;;;;;;;-148.88;100.00;77703.28;5035090;28;20104;-76
2023/01/03 07:23:40;;;;;;;33.92;13.18;;;;;;;-148.88;100.00;77709.38;5034803;28;20397;-76
2023/01/03 07:26:05;;;;;;;35.08;14.65;;;;;;;-148.88;100.00;77711.41;5034880;28;20021;-76
2023/01/03 07:28:30;;;;;;;34.15;14.05;;;;;;;-148.88;100.00;77703.28;5035188;28;20083;-76
2023/01/03 07:31:01;;;;;;;35.63;15.18;;;;;;;-148.88;100.00;77701.25;5035250;28;20057;-76
2023/01/03 07:33:26;;;;;;;34.70;13.98;;;;;;;-148.88;100.00;77685.00;5034698;28;20025;-76
2023/01/03 07:35:51;;;;;;;33.63;14.57;;;;;;;-148.88;100.00;77691.09;5035054;28;20396;-76
2023/01/03 07:38:17;;;;;;;31.90;14.32;;;;;;;-148.88;100.00;77687.03;5017466;28;20030;-76
2023/01/03 07:40:42;;;;;;;41.65;15.25;;;;;;;-148.88;100.00;77687.03;5017193;28;20033;-76
2023/01/03 07:45:55;;;;;;;39.20;15.05;;;;;;;-148.88;100.00;77691.09;5034633;28;20506;-76
2023/01/03 07:48:20;;;;;;;32.80;14.80;;;;;;;-148.88;100.00;77699.22;5016809;28;20033;-76
2023/01/03 07:50:45;;;;;;;42.47;16.50;;;;;;;-148.88;100.00;77703.28;5034481;28;20029;-76
2023/01/03 07:53:15;;;;;;;40.55;15.70;;;;;;;-148.88;100.00;77703.28;5017147;28;20376;-76
2023/01/03 07:55:44;;;;;;;41.47;17.95;;;;;;;-148.88;100.00;77713.44;5034468;28;20404;-76
2023/01/03 07:58:10;;;;;;;39.95;15.40;;;;;;;-148.88;100.00;77711.41;5016665;28;20025;-76
2023/01/03 08:00:35;;;;;;;38.08;15.48;;;;;;;-148.88;100.00;77715.47;5034552;28;20028;-76
2023/01/03 08:03:01;;;;;;;38.47;16.17;;;;;;;-148.88;100.00;77725.63;5034200;28;20021;-77
2023/01/03 08:05:26;;;;;;;39.35;16.52;;;;;;;-148.88;100.00;77719.53;5034703;28;20032;-76
2023/01/03 08:07:52;;;;;;;42.30;16.38;;;;;;;-148.88;100.00;77721.56;5015794;28;20021;-77
2023/01/03 08:13:18;;;;;;;46.33;18.42;;;;;;;-148.88;100.00;77713.44;5034421;28;20029;-76
2023/01/03 08:15:51;;;;;;;42.83;18.17;;;;;;;-148.88;100.00;77719.53;5034356;28;20400;-76
2023/01/03 08:18:19;;;;;;;41.13;17.10;;;;;;;-148.88;100.00;77731.72;5016167;28;20087;-76
2023/01/03 08:20:46;;;;;;;46.08;17.48;;;;;;;-148.88;100.00;77713.44;5016183;28;20031;-76
2023/01/03 08:23:11;;;;;;;42.70;16.30;;;;;;;-148.88;100.00;77725.63;5016034;28;20032;-76
2023/01/03 08:25:38;;;;;;;41.13;16.75;;;;;;;-148.88;100.00;77727.66;5016066;28;20021;-77
2023/01/03 08:28:05;;;;;;;41.45;17.27;;;;;;;-148.88;100.00;77717.50;5033705;28;20476;-76
2023/01/03 08:30:32;;;;;;;42.30;16.75;;;;;;;-148.88;100.00;77715.47;5034263;28;20022;-76
2023/01/03 08:33:01;;;;;;;45.38;17.80;;;;;;;-148.88;100.00;77695.16;5033536;28;20496;-76
2023/01/03 08:35:30;;;;;;;43.42;16.65;;;;;;;-148.88;100.00;77705.31;5033526;28;20456;-76
2023/01/03 08:37:58;;;;;;;40.60;16.65;;;;;;;-148.88;100.00;77703.28;5034080;28;20021;-76
2023/01/03 08:40:23;;;;;;;44.42;16.50;;;;;;;-148.88;100.00;77689.06;5033506;28;20053;-76
2023/01/03 08:42:51;;;;;;;37.63;16.42;;;;;;;-148.88;100.00;77674.84;5015900;28;20056;-76
2023/01/03 08:45:17;;;;;;;36.38;15.27;;;;;;;-148.88;100.00;77678.91;5033533;28;20033;-76
2023/01/03 08:47:44;;;;;;;35.25;15.30;;;;;;;-148.88;100.00;77676.88;5033438;28;20022;-76
2023/01/03 08:50:11;;;;;;;43.03;17.00;;;;;;;-148.88;100.00;77666.69;5015705;28;20055;-76
2023/01/03 08:52:36;;;;;;;38.42;16.98;;;;;;;-148.88;100.00;77670.75;5015703;28;20013;-76
2023/01/03 08:55:03;;;;;;;38.08;16.05;;;;;;;-148.88;100.00;77654.50;5033295;28;20025;-76
2023/01/03 08:57:29;;;;;;;43.00;16.88;;;;;;;-148.88;100.00;77652.47;5032059;28;20017;-76
2023/01/03 08:59:54;;;;;;;37.67;16.33;;;;;;;-148.88;100.00;77642.31;5033312;28;20029;-76
2023/01/03 09:02:19;;;;;;;35.55;14.88;;;;;;;-148.88;100.00;77626.06;5015460;28;20105;-76
2023/01/03 09:04:45;;;;;;;43.50;16.90;;;;;;;-148.88;100.00;77615.91;5015299;28;20079;-76
2023/01/03 09:07:11;;;;;;;32.08;14.40;;;;;;;-148.88;100.00;77613.88;5033214;28;20025;-76
2023/01/03 09:09:36;;;;;;;40.90;16.00;;;;;;;-148.88;100.00;77609.81;5033546;28;20095;-76
2023/01/03 09:12:01;;;;;;;38.03;16.48;;;;;;;-148.88;100.00;77603.69;5033162;28;20031;-76
2023/01/03 09:14:29;;;;;;;39.50;15.73;;;;;;;-148.88;100.00;77607.78;5032925;28;20108;-76
2023/01/03 09:16:54;;;;;;;35.35;15.15;;;;;;;-148.88;100.00;77607.78;5015306;28;20037;-77
2023/01/03 09:19:20;;;;;;;33.33;13.85;;;;;;;-148.88;100.00;77605.75;5014438;28;20082;-77
2023/01/03 09:21:45;;;;;;;33.38;14.05;;;;;;;-148.88;100.00;77603.69;5015636;28;20029;-77
2023/01/03 09:24:10;;;;;;;37.90;14.40;;;;;;;-148.88;100.00;77605.75;5014956;28;20022;-76
2023/01/03 09:26:36;;;;;;;31.70;12.93;;;;;;;-148.88;100.00;77601.66;5032904;28;20024;-76
2023/01/03 09:29:01;;;;;;;30.95;12.43;;;;;;;-148.88;100.00;77593.53;5033024;28;20366;-76
2023/01/03 09:31:28;;;;;;;31.45;12.02;;;;;;;-148.88;100.00;77589.47;5015199;28;20071;-76
2023/01/03 09:33:53;;;;;;;35.28;12.35;;;;;;;-148.88;100.00;77585.41;5015080;28;20035;-76
2023/01/03 09:36:19;;;;;;;28.77;12.13;;;;;;;-148.88;100.00;77575.25;5033224;28;20116;-76
2023/01/03 09:38:46;;;;;;;26.88;11.10;;;;;;;-148.88;100.00;77573.22;5032935;28;20068;-76
2023/01/03 09:41:20;;;;;;;24.80;11.27;;;;;;;-148.88;100.00;77577.28;5015223;28;20116;-76
2023/01/03 09:43:47;;;;;;;;;;;;;;;-148.88;100.00;77565.09;5033803;28;20056;-76
2023/01/03 09:46:19;;;;;;;21.30;9.63;;;;;;;-148.88;100.00;77556.97;5032774;28;19913;-76
2023/01/03 09:48:47;;;;;;;23.92;9.98;;;;;;;-148.88;100.00;77556.97;5032801;28;20029;-77
2023/01/03 10:03:43;;;;;;;17.17;9.05;;;;;;;-148.88;100.00;77506.16;5032850;28;20567;-76
2023/01/03 10:06:39;;;;;;;20.67;8.75;;;;;;;-148.88;100.00;77493.97;5032711;28;20081;-76
2023/01/03 10:09:35;;;;;;;16.45;7.47;;;;;;;-148.88;100.00;77475.69;5032648;28;20079;-76
2023/01/03 10:12:16;;;;;;;20.85;8.05;;;;;;;-148.88;100.00;77463.50;5032536;28;20101;-76
2023/01/03 10:15:01;;;;;;;18.35;8.32;;;;;;;-148.88;100.00;77463.50;5032197;28;20034;-76
2023/01/03 10:17:48;;;;;;;20.60;8.27;;;;;;;-148.88;100.00;77445.19;5032697;28;20384;-76
2023/01/03 10:20:26;;;;;;;14.65;7.28;;;;;;;-148.88;100.00;77433.00;5014745;28;20029;-76
2023/01/03 10:22:54;;;;;;;14.98;7.60;;;;;;;-148.88;100.00;77410.66;5014544;28;20385;-76
2023/01/03 10:25:22;;;;;;;19.05;8.07;;;;;;;-148.88;100.00;77400.50;5032487;28;20432;-76
2023/01/03 10:28:17;;;;;;;14.35;6.82;;;;;;;-148.88;100.00;77400.50;5032553;28;20029;-76
2023/01/03 10:31:13;;;;;;;14.65;7.13;;;;;;;-148.88;100.00;77390.34;5015593;28;20025;-77
2023/01/03 10:33:44;;;;;;;21.73;7.53;;;;;;;-148.88;100.00;77365.94;5035948;28;20037;-75
2023/01/03 10:36:10;;;;;;;14.25;6.93;;;;;;;-148.88;100.00;77341.56;5018147;28;20562;-74
2023/01/03 10:38:37;;;;;;;14.70;7.25;;;;;;;-148.88;100.00;77331.41;5035808;28;20083;-76
2023/01/03 10:41:04;;;;;;;16.88;7.35;;;;;;;-148.88;100.00;77305.00;5035748;28;20021;-76
2023/01/03 10:43:39;;;;;;;14.00;7.25;;;;;;;-148.88;100.00;77280.59;5018050;28;20160;-75
2023/01/03 10:46:14;;;;;;;15.55;6.68;;;;;;;-148.88;100.00;77264.34;5017893;28;20455;-76
2023/01/03 10:48:47;;;;;;;14.38;6.28;;;;;;;-148.88;100.00;77239.97;5036132;28;20388;-78
2023/01/03 10:51:29;;;;;;;16.13;7.10;;;;;;;-148.88;100.00;77217.63;5019308;28;20021;-78
2023/01/03 10:53:57;;;;;;;14.30;5.90;;;;;;;-148.88;99.45;77207.47;5036723;28;20025;-77
2023/01/03 10:56:24;;;;;;;9.27;5.70;;;;;;;-148.88;98.02;77199.31;5036891;28;20033;-78
2023/01/03 10:59:11;;;;;;;12.65;5.85;;;;;;;-148.88;99.79;77162.75;5019041;28;20029;-78
2023/01/03 11:01:37;;;;;;;12.13;5.00;;;;;;;-148.88;96.47;77158.69;5018907;28;20025;-78
2023/01/03 11:04:11;;;;;;;10.10;5.53;;;;;;;-148.88;95.74;77162.75;5036559;28;20027;-78
2023/01/03 11:06:37;;;;;;;9.95;4.85;;;;;;;-148.88;94.95;77138.38;5036788;28;20591;-78
2023/01/03 11:09:09;;;;;;;12.30;6.65;;;;;;;-148.88;95.53;77130.25;5037280;28;20112;-77
2023/01/03 11:11:39;;;;;;;12.55;4.97;;;;;;;-148.88;95.06;77128.22;5020489;28;20026;-78
2023/01/03 11:14:25;;;;;;;10.10;5.43;;;;;;;-148.88;95.53;77162.75;5037028;28;20104;-78
2023/01/03 11:16:57;;;;;;;10.70;5.75;;;;;;;-148.88;94.84;77164.78;5020096;28;20036;-78
2023/01/03 11:19:26;;;;;;;12.25;5.25;;;;;;;-148.88;97.03;77126.19;5036725;28;20079;-78
2023/01/03 11:22:04;;;;;;;10.82;5.30;;;;;;;-148.88;93.50;77142.44;5034740;28;20025;-78
2023/01/03 11:24:45;;;;;;;9.57;4.55;;;;;;;-148.88;94.45;77154.63;5018090;28;20113;-77
2023/01/03 11:27:26;;;;;;;9.88;4.85;;;;;;;-148.88;95.89;77170.88;5036044;28;20021;-78
2023/01/03 11:30:15;;;;;;;7.90;4.78;;;;;;;-148.88;97.03;77179.00;5035951;28;20022;-78
2023/01/03 11:32:51;;;;;;;10.07;4.38;;;;;;;-148.88;96.59;77170.88;5035600;28;20038;-78
2023/01/03 11:35:44;;;;;;;10.75;5.03;;;;;;;-148.88;97.00;77189.16;5035739;28;20055;-78
2023/01/03 11:38:26;;;;;;;9.55;4.20;;;;;;;-148.88;97.77;77199.31;5036282;28;20034;-78
2023/01/03 11:41:29;;;;;;;7.75;4.13;;;;;;;-148.88;97.41;77203.41;5036866;28;20040;-78
2023/01/03 11:44:10;;;;;;;10.10;4.28;;;;;;;-148.88;97.24;77207.47;5017825;28;20072;-78
2023/01/03 11:46:55;;;;;;;7.68;3.95;;;;;;;-148.88;99.13;77211.53;5018572;28;20022;-78
2023/01/03 11:49:30;;;;;;;9.30;4.43;;;;;;;-148.88;99.86;77221.69;5036144;28;20484;-78
2023/01/03 11:52:04;;;;;;;8.07;4.47;;;;;;;-148.88;100.00;77231.84;5019486;28;20117;-78
2023/01/03 11:54:41;;;;;;;7.22;3.58;;;;;;;-148.88;100.00;77221.69;5019053;28;20017;-78
2023/01/03 11:57:29;;;;;;;10.93;4.22;;;;;;;-148.88;100.00;77223.72;5035867;28;20033;-78
2023/01/03 12:00:07;;;;;;;6.13;3.60;;;;;;;-148.88;100.00;77219.66;5017710;28;20040;-78
2023/01/03 12:03:08;;;;;;;7.65;4.20;;;;;;;-148.88;100.00;77233.88;5035985;28;20392;-78
2023/01/03 12:06:03;;;;;;;6.65;3.70;;;;;;;-148.88;100.00;77225.75;4968325;28;20037;-78
2023/01/03 12:08:36;;;;;;;7.70;3.92;;;;;;;-148.88;100.00;77229.81;5017623;28;20025;-78
2023/01/03 12:11:04;;;;;;;8.98;3.90;;;;;;;-148.88;100.00;77227.78;5035320;28;20029;-78
2023/01/03 12:13:50;;;;;;;7.75;4.20;;;;;;;-148.88;100.00;77227.78;5017641;28;20155;-78
2023/01/03 12:16:24;;;;;;;7.53;3.60;;;;;;;-148.88;100.00;77231.84;5035887;28;20022;-78
2023/01/03 12:18:53;;;;;;;;;;;;;;;-148.88;100.00;77217.63;5018530;28;20026;-78
2023/01/03 12:21:34;;;;;;;8.82;4.35;;;;;;;-148.88;100.00;77203.41;5036529;28;19909;-78
2023/01/03 12:24:26;;;;;;;7.30;3.60;;;;;;;-148.88;100.00;77191.19;5035840;28;20457;-79